Delta Virtual Airport Information Service

Austin Bergstrom International Airport

ICAO: KAUS Country: United States
Latitude: 30.1945 Longitude: -97.6698
Latest Arrival : NKS598 (KLAX-KAUS) Latest Departure : JBU262371 (KAUS-KMCO)


WX CaptureLIVE
Data provided by noaa.gov | Fetched at 04:35:12

METAR : KAUS 031027Z 20011KT 6SM BR OVC006 19/18 A3005 RMK AO2 DZE07 P0000 T01890183

TAF : KAUS 030959Z 0310/0412 19008KT 2SM -DZ BR OVC003 FM031200 20003KT 1/2SM FG OVC001 FM031500 19006KT 2SM BR SCT005 BKN012 FM031700 19008KT P6SM SCT025 BKN100 FM040000 17006KT P6SM SCT025 SCT080 FM041000 18003KT 1SM BR OVC010


Runway Data for KAUS
Data provided by openaviationdata.com

Runway ID Mag Var Hdg Length Elevation Surface ILS Freq ILS Id ILS Slope
17L 6 172° 9022 ft 494 ft Concrete 110.5 IVNK 3
17R 6 172° 12278 ft 494 ft Concrete 110.3 IGFQ 3
35L 6 352° 12278 ft 494 ft Concrete 110.3 IBSM 3
35R 6 352° 9022 ft 494 ft Concrete 110.5 IHCE 3

Austin Bergstrom International Airport, United States
Use only for reference purposes



Not for navigational purposes.